sensor_id;sensor_type;location;lat;lon;timestamp;temperature;humidity
35425;DHT22;21537;48.226;16.400;2022-07-05T00:01:10;21.30;99.90
35425;DHT22;21537;48.226;16.400;2022-07-05T00:03:35;21.30;99.90
35425;DHT22;21537;48.226;16.400;2022-07-05T00:06:01;21.30;99.90
35425;DHT22;21537;48.226;16.400;2022-07-05T00:08:27;21.30;99.90
35425;DHT22;21537;48.226;16.400;2022-07-05T00:10:53;21.30;99.90
35425;DHT22;21537;48.226;16.400;2022-07-05T00:13:19;21.30;99.90
35425;DHT22;21537;48.226;16.400;2022-07-05T00:15:45;21.30;99.90
35425;DHT22;21537;48.226;16.400;2022-07-05T00:18:10;21.20;99.90
35425;DHT22;21537;48.226;16.400;2022-07-05T00:20:36;21.20;99.90
35425;DHT22;21537;48.226;16.400;2022-07-05T00:23:02;21.10;99.90
35425;DHT22;21537;48.226;16.400;2022-07-05T00:25:28;21.20;99.90
35425;DHT22;21537;48.226;16.400;2022-07-05T00:27:54;21.10;99.90
35425;DHT22;21537;48.226;16.400;2022-07-05T00:30:20;21.10;99.90
35425;DHT22;21537;48.226;16.400;2022-07-05T00:32:45;21.20;99.90
35425;DHT22;21537;48.226;16.400;2022-07-05T00:35:11;21.20;99.90
35425;DHT22;21537;48.226;16.400;2022-07-05T00:37:37;21.20;99.90
35425;DHT22;21537;48.226;16.400;2022-07-05T00:40:04;21.20;99.90
35425;DHT22;21537;48.226;16.400;2022-07-05T00:42:30;21.10;99.90
35425;DHT22;21537;48.226;16.400;2022-07-05T00:44:56;21.20;99.90
35425;DHT22;21537;48.226;16.400;2022-07-05T00:47:22;21.20;99.90
35425;DHT22;21537;48.226;16.400;2022-07-05T00:49:49;21.10;99.90
35425;DHT22;21537;48.226;16.400;2022-07-05T00:52:15;21.10;99.90
35425;DHT22;21537;48.226;16.400;2022-07-05T00:54:42;21.10;99.90
35425;DHT22;21537;48.226;16.400;2022-07-05T00:57:07;21.10;99.90
35425;DHT22;21537;48.226;16.400;2022-07-05T00:59:34;21.00;99.90
35425;DHT22;21537;48.226;16.400;2022-07-05T01:02:00;21.00;99.90
35425;DHT22;21537;48.226;16.400;2022-07-05T01:04:26;21.00;99.90
35425;DHT22;21537;48.226;16.400;2022-07-05T01:06:53;21.00;99.90
35425;DHT22;21537;48.226;16.400;2022-07-05T01:09:21;21.00;99.90
35425;DHT22;21537;48.226;16.400;2022-07-05T01:11:48;20.90;99.90
35425;DHT22;21537;48.226;16.400;2022-07-05T01:14:21;21.00;99.90
35425;DHT22;21537;48.226;16.400;2022-07-05T01:16:51;20.90;99.90
35425;DHT22;21537;48.226;16.400;2022-07-05T01:19:17;20.90;99.90
35425;DHT22;21537;48.226;16.400;2022-07-05T01:21:47;21.00;99.90
35425;DHT22;21537;48.226;16.400;2022-07-05T01:24:16;21.00;99.90
35425;DHT22;21537;48.226;16.400;2022-07-05T01:26:45;20.90;99.90
35425;DHT22;21537;48.226;16.400;2022-07-05T01:29:12;20.90;99.90
35425;DHT22;21537;48.226;16.400;2022-07-05T01:31:39;20.90;99.90
35425;DHT22;21537;48.226;16.400;2022-07-05T01:34:06;20.80;99.90
35425;DHT22;21537;48.226;16.400;2022-07-05T01:36:34;20.90;99.90
35425;DHT22;21537;48.226;16.400;2022-07-05T01:39:01;20.90;99.90
35425;DHT22;21537;48.226;16.400;2022-07-05T01:41:28;21.30;99.90
35425;DHT22;21537;48.226;16.400;2022-07-05T01:43:54;21.70;99.90
35425;DHT22;21537;48.226;16.400;2022-07-05T01:46:22;21.70;99.90
35425;DHT22;21537;48.226;16.400;2022-07-05T01:48:53;21.80;99.90
35425;DHT22;21537;48.226;16.400;2022-07-05T01:51:33;21.70;99.90
35425;DHT22;21537;48.226;16.400;2022-07-05T01:53:59;21.50;99.90
35425;DHT22;21537;48.226;16.400;2022-07-05T01:56:25;21.40;99.90
35425;DHT22;21537;48.226;16.400;2022-07-05T01:58:52;21.20;99.90
35425;DHT22;21537;48.226;16.400;2022-07-05T02:01:39;21.10;99.90
35425;DHT22;21537;48.226;16.400;2022-07-05T02:04:07;20.90;99.90
35425;DHT22;21537;48.226;16.400;2022-07-05T02:06:34;20.80;99.90
35425;DHT22;21537;48.226;16.400;2022-07-05T02:09:02;20.70;99.90
35425;DHT22;21537;48.226;16.400;2022-07-05T02:11:29;20.60;99.90
35425;DHT22;21537;48.226;16.400;2022-07-05T02:13:57;20.60;99.90
35425;DHT22;21537;48.226;16.400;2022-07-05T02:16:25;20.50;99.90
35425;DHT22;21537;48.226;16.400;2022-07-05T02:18:52;20.50;99.90
35425;DHT22;21537;48.226;16.400;2022-07-05T02:21:18;20.40;99.90
35425;DHT22;21537;48.226;16.400;2022-07-05T02:23:46;20.30;99.90
35425;DHT22;21537;48.226;16.400;2022-07-05T02:26:12;20.30;99.90
35425;DHT22;21537;48.226;16.400;2022-07-05T02:28:40;20.30;99.90
35425;DHT22;21537;48.226;16.400;2022-07-05T02:31:07;20.30;99.90
35425;DHT22;21537;48.226;16.400;2022-07-05T02:33:33;20.30;99.90
35425;DHT22;21537;48.226;16.400;2022-07-05T02:36:09;20.30;99.90
35425;DHT22;21537;48.226;16.400;2022-07-05T02:38:35;20.30;99.90
35425;DHT22;21537;48.226;16.400;2022-07-05T02:41:05;20.30;99.90
35425;DHT22;21537;48.226;16.400;2022-07-05T02:43:33;20.30;99.90
35425;DHT22;21537;48.226;16.400;2022-07-05T02:46:00;20.40;99.90
35425;DHT22;21537;48.226;16.400;2022-07-05T02:48:27;20.40;99.90
35425;DHT22;21537;48.226;16.400;2022-07-05T02:50:53;20.40;99.90
35425;DHT22;21537;48.226;16.400;2022-07-05T02:53:19;20.30;99.90
35425;DHT22;21537;48.226;16.400;2022-07-05T02:55:45;20.30;99.90
35425;DHT22;21537;48.226;16.400;2022-07-05T02:58:11;20.30;99.90
35425;DHT22;21537;48.226;16.400;2022-07-05T03:00:37;20.30;99.90
35425;DHT22;21537;48.226;16.400;2022-07-05T03:03:03;20.40;99.90
35425;DHT22;21537;48.226;16.400;2022-07-05T03:05:31;20.50;99.90
35425;DHT22;21537;48.226;16.400;2022-07-05T03:08:01;20.50;99.90
35425;DHT22;21537;48.226;16.400;2022-07-05T03:10:30;20.50;99.90
35425;DHT22;21537;48.226;16.400;2022-07-05T03:12:57;20.70;99.90
35425;DHT22;21537;48.226;16.400;2022-07-05T03:15:24;20.70;99.90
35425;DHT22;21537;48.226;16.400;2022-07-05T03:17:50;20.80;99.90
35425;DHT22;21537;48.226;16.400;2022-07-05T03:20:18;20.80;99.90
35425;DHT22;21537;48.226;16.400;2022-07-05T03:22:45;20.80;99.90
35425;DHT22;21537;48.226;16.400;2022-07-05T03:25:11;20.90;99.90
35425;DHT22;21537;48.226;16.400;2022-07-05T03:27:38;20.90;99.90
35425;DHT22;21537;48.226;16.400;2022-07-05T03:30:05;20.90;99.90
35425;DHT22;21537;48.226;16.400;2022-07-05T03:32:33;20.90;99.90
35425;DHT22;21537;48.226;16.400;2022-07-05T03:34:59;20.90;99.90
35425;DHT22;21537;48.226;16.400;2022-07-05T03:37:26;20.90;99.90
35425;DHT22;21537;48.226;16.400;2022-07-05T03:39:52;20.90;99.90
35425;DHT22;21537;48.226;16.400;2022-07-05T03:42:17;21.00;99.90
35425;DHT22;21537;48.226;16.400;2022-07-05T03:44:43;21.00;99.90
35425;DHT22;21537;48.226;16.400;2022-07-05T03:47:11;21.00;99.90
35425;DHT22;21537;48.226;16.400;2022-07-05T03:49:37;21.00;99.90
35425;DHT22;21537;48.226;16.400;2022-07-05T03:52:03;21.10;99.90
35425;DHT22;21537;48.226;16.400;2022-07-05T03:54:30;21.10;99.90
35425;DHT22;21537;48.226;16.400;2022-07-05T03:56:55;21.10;99.90
35425;DHT22;21537;48.226;16.400;2022-07-05T03:59:21;21.10;99.90
35425;DHT22;21537;48.226;16.400;2022-07-05T04:01:47;21.10;99.90
35425;DHT22;21537;48.226;16.400;2022-07-05T04:04:14;21.10;99.90
35425;DHT22;21537;48.226;16.400;2022-07-05T04:06:40;21.10;99.90
35425;DHT22;21537;48.226;16.400;2022-07-05T04:09:06;21.10;99.90
35425;DHT22;21537;48.226;16.400;2022-07-05T04:11:32;21.10;99.90
35425;DHT22;21537;48.226;16.400;2022-07-05T04:13:59;21.10;99.90
35425;DHT22;21537;48.226;16.400;2022-07-05T04:16:24;21.20;99.90
35425;DHT22;21537;48.226;16.400;2022-07-05T04:18:52;21.20;99.90
35425;DHT22;21537;48.226;16.400;2022-07-05T04:21:18;21.20;99.90
35425;DHT22;21537;48.226;16.400;2022-07-05T04:23:44;21.20;99.90
35425;DHT22;21537;48.226;16.400;2022-07-05T04:26:10;21.30;99.90
35425;DHT22;21537;48.226;16.400;2022-07-05T04:28:40;21.40;99.90
35425;DHT22;21537;48.226;16.400;2022-07-05T04:31:09;21.50;99.90
35425;DHT22;21537;48.226;16.400;2022-07-05T04:33:40;21.50;99.90
35425;DHT22;21537;48.226;16.400;2022-07-05T04:36:06;21.50;99.90
35425;DHT22;21537;48.226;16.400;2022-07-05T04:38:35;21.40;99.90
35425;DHT22;21537;48.226;16.400;2022-07-05T04:41:03;21.40;99.90
35425;DHT22;21537;48.226;16.400;2022-07-05T04:43:30;21.40;99.90
35425;DHT22;21537;48.226;16.400;2022-07-05T04:45:56;21.40;99.90
35425;DHT22;21537;48.226;16.400;2022-07-05T04:48:23;21.50;99.90
35425;DHT22;21537;48.226;16.400;2022-07-05T04:50:49;21.40;99.90
35425;DHT22;21537;48.226;16.400;2022-07-05T04:53:15;21.50;99.90
35425;DHT22;21537;48.226;16.400;2022-07-05T04:55:41;21.40;99.90
35425;DHT22;21537;48.226;16.400;2022-07-05T04:58:07;21.40;99.90
35425;DHT22;21537;48.226;16.400;2022-07-05T05:00:33;21.40;99.90
35425;DHT22;21537;48.226;16.400;2022-07-05T05:02:58;21.40;99.90
35425;DHT22;21537;48.226;16.400;2022-07-05T05:05:24;21.40;99.90
35425;DHT22;21537;48.226;16.400;2022-07-05T05:07:50;21.50;99.90
35425;DHT22;21537;48.226;16.400;2022-07-05T05:10:16;21.60;99.90
35425;DHT22;21537;48.226;16.400;2022-07-05T05:12:42;21.60;99.90
35425;DHT22;21537;48.226;16.400;2022-07-05T05:15:08;21.60;99.90
35425;DHT22;21537;48.226;16.400;2022-07-05T05:17:44;21.60;99.90
35425;DHT22;21537;48.226;16.400;2022-07-05T05:20:13;21.60;99.90
35425;DHT22;21537;48.226;16.400;2022-07-05T05:22:40;21.60;99.90
35425;DHT22;21537;48.226;16.400;2022-07-05T05:25:06;21.50;99.90
35425;DHT22;21537;48.226;16.400;2022-07-05T05:27:32;21.60;99.90
35425;DHT22;21537;48.226;16.400;2022-07-05T05:29:58;21.60;99.90
35425;DHT22;21537;48.226;16.400;2022-07-05T05:32:24;21.60;99.90
35425;DHT22;21537;48.226;16.400;2022-07-05T05:34:50;21.50;99.90
35425;DHT22;21537;48.226;16.400;2022-07-05T05:37:16;21.60;99.90
35425;DHT22;21537;48.226;16.400;2022-07-05T05:39:42;21.60;99.90
35425;DHT22;21537;48.226;16.400;2022-07-05T05:42:08;21.60;99.90
35425;DHT22;21537;48.226;16.400;2022-07-05T05:44:34;21.60;99.90
35425;DHT22;21537;48.226;16.400;2022-07-05T05:47:00;21.50;99.90
35425;DHT22;21537;48.226;16.400;2022-07-05T05:49:25;21.50;99.90
35425;DHT22;21537;48.226;16.400;2022-07-05T05:51:51;21.40;99.90
35425;DHT22;21537;48.226;16.400;2022-07-05T05:54:17;21.30;99.90
35425;DHT22;21537;48.226;16.400;2022-07-05T05:56:44;21.30;99.90
35425;DHT22;21537;48.226;16.400;2022-07-05T05:59:10;21.30;99.90
35425;DHT22;21537;48.226;16.400;2022-07-05T06:01:36;21.20;99.90
35425;DHT22;21537;48.226;16.400;2022-07-05T06:04:02;21.30;99.90
35425;DHT22;21537;48.226;16.400;2022-07-05T06:06:27;21.30;99.90
35425;DHT22;21537;48.226;16.400;2022-07-05T06:08:53;21.40;99.90
35425;DHT22;21537;48.226;16.400;2022-07-05T06:11:19;21.40;99.90
35425;DHT22;21537;48.226;16.400;2022-07-05T06:13:45;21.40;99.90
35425;DHT22;21537;48.226;16.400;2022-07-05T06:16:11;21.40;99.90
35425;DHT22;21537;48.226;16.400;2022-07-05T06:18:36;21.40;99.90
35425;DHT22;21537;48.226;16.400;2022-07-05T06:21:02;21.30;99.90
35425;DHT22;21537;48.226;16.400;2022-07-05T06:23:28;21.20;99.90
35425;DHT22;21537;48.226;16.400;2022-07-05T06:25:54;21.20;99.90
35425;DHT22;21537;48.226;16.400;2022-07-05T06:28:20;21.30;99.90
35425;DHT22;21537;48.226;16.400;2022-07-05T06:30:46;21.40;99.90
35425;DHT22;21537;48.226;16.400;2022-07-05T06:33:12;21.40;99.90
35425;DHT22;21537;48.226;16.400;2022-07-05T06:35:38;21.40;99.90
35425;DHT22;21537;48.226;16.400;2022-07-05T06:38:08;21.30;99.90
35425;DHT22;21537;48.226;16.400;2022-07-05T06:40:39;21.40;99.90
35425;DHT22;21537;48.226;16.400;2022-07-05T06:43:10;21.50;99.90
35425;DHT22;21537;48.226;16.400;2022-07-05T06:45:40;21.70;99.90
35425;DHT22;21537;48.226;16.400;2022-07-05T06:48:08;21.80;99.90
35425;DHT22;21537;48.226;16.400;2022-07-05T06:50:36;21.80;99.90
35425;DHT22;21537;48.226;16.400;2022-07-05T06:53:03;22.00;99.90
35425;DHT22;21537;48.226;16.400;2022-07-05T06:55:29;22.20;99.90
35425;DHT22;21537;48.226;16.400;2022-07-05T06:58:05;22.20;99.90
35425;DHT22;21537;48.226;16.400;2022-07-05T07:00:32;22.30;99.90
35425;DHT22;21537;48.226;16.400;2022-07-05T07:02:58;22.30;99.90
35425;DHT22;21537;48.226;16.400;2022-07-05T07:05:25;22.20;99.90
35425;DHT22;21537;48.226;16.400;2022-07-05T07:07:51;22.20;99.90
35425;DHT22;21537;48.226;16.400;2022-07-05T07:10:49;22.20;99.90
35425;DHT22;21537;48.226;16.400;2022-07-05T07:13:15;22.30;99.90
35425;DHT22;21537;48.226;16.400;2022-07-05T07:15:40;22.40;99.90
35425;DHT22;21537;48.226;16.400;2022-07-05T07:18:06;22.50;99.90
35425;DHT22;21537;48.226;16.400;2022-07-05T07:20:32;22.50;99.90
35425;DHT22;21537;48.226;16.400;2022-07-05T07:22:58;22.40;99.90
35425;DHT22;21537;48.226;16.400;2022-07-05T07:25:24;22.50;99.90
35425;DHT22;21537;48.226;16.400;2022-07-05T07:27:52;22.60;99.90
35425;DHT22;21537;48.226;16.400;2022-07-05T07:30:22;22.70;99.90
35425;DHT22;21537;48.226;16.400;2022-07-05T07:32:48;22.60;99.90
35425;DHT22;21537;48.226;16.400;2022-07-05T07:35:14;22.60;99.90
35425;DHT22;21537;48.226;16.400;2022-07-05T07:37:40;22.70;99.90
35425;DHT22;21537;48.226;16.400;2022-07-05T07:40:07;22.70;99.90
35425;DHT22;21537;48.226;16.400;2022-07-05T07:42:33;22.70;99.90
35425;DHT22;21537;48.226;16.400;2022-07-05T07:44:59;22.80;99.90
35425;DHT22;21537;48.226;16.400;2022-07-05T07:47:33;22.80;99.90
35425;DHT22;21537;48.226;16.400;2022-07-05T07:50:00;22.80;99.90
35425;DHT22;21537;48.226;16.400;2022-07-05T07:52:26;22.80;99.90
35425;DHT22;21537;48.226;16.400;2022-07-05T07:54:52;22.80;99.90
35425;DHT22;21537;48.226;16.400;2022-07-05T07:57:18;23.10;99.90
35425;DHT22;21537;48.226;16.400;2022-07-05T07:59:44;23.30;99.90
35425;DHT22;21537;48.226;16.400;2022-07-05T08:02:10;23.40;99.90
35425;DHT22;21537;48.226;16.400;2022-07-05T08:04:36;23.50;99.90
35425;DHT22;21537;48.226;16.400;2022-07-05T08:07:02;23.70;99.90
35425;DHT22;21537;48.226;16.400;2022-07-05T08:09:29;23.70;99.90
35425;DHT22;21537;48.226;16.400;2022-07-05T08:11:56;23.70;99.90
35425;DHT22;21537;48.226;16.400;2022-07-05T08:14:22;23.70;99.90
35425;DHT22;21537;48.226;16.400;2022-07-05T08:16:48;23.90;99.90
35425;DHT22;21537;48.226;16.400;2022-07-05T08:19:15;23.90;99.90
35425;DHT22;21537;48.226;16.400;2022-07-05T08:22:00;23.90;99.90
35425;DHT22;21537;48.226;16.400;2022-07-05T08:24:27;24.00;99.90
35425;DHT22;21537;48.226;16.400;2022-07-05T08:26:53;23.90;99.90
35425;DHT22;21537;48.226;16.400;2022-07-05T08:29:18;23.90;99.90
35425;DHT22;21537;48.226;16.400;2022-07-05T08:31:47;24.00;99.90
35425;DHT22;21537;48.226;16.400;2022-07-05T08:34:15;24.10;99.90
35425;DHT22;21537;48.226;16.400;2022-07-05T08:36:43;24.00;99.90
35425;DHT22;21537;48.226;16.400;2022-07-05T08:39:09;23.90;99.90
35425;DHT22;21537;48.226;16.400;2022-07-05T08:41:37;23.90;99.90
35425;DHT22;21537;48.226;16.400;2022-07-05T08:44:05;23.70;99.90
35425;DHT22;21537;48.226;16.400;2022-07-05T08:46:32;23.40;99.90
35425;DHT22;21537;48.226;16.400;2022-07-05T08:49:00;23.20;99.90
35425;DHT22;21537;48.226;16.400;2022-07-05T08:51:28;23.00;99.90
35425;DHT22;21537;48.226;16.400;2022-07-05T08:53:54;22.80;99.90
35425;DHT22;21537;48.226;16.400;2022-07-05T08:56:23;22.80;99.90
35425;DHT22;21537;48.226;16.400;2022-07-05T08:58:49;23.00;99.90
35425;DHT22;21537;48.226;16.400;2022-07-05T09:01:15;22.90;99.90
35425;DHT22;21537;48.226;16.400;2022-07-05T09:03:47;22.70;99.90
35425;DHT22;21537;48.226;16.400;2022-07-05T09:06:16;22.60;99.90
35425;DHT22;21537;48.226;16.400;2022-07-05T09:08:43;22.40;99.90
35425;DHT22;21537;48.226;16.400;2022-07-05T09:11:12;22.20;99.90
35425;DHT22;21537;48.226;16.400;2022-07-05T09:13:41;22.10;99.90
35425;DHT22;21537;48.226;16.400;2022-07-05T09:16:07;22.20;99.90
35425;DHT22;21537;48.226;16.400;2022-07-05T09:18:44;22.20;99.90
35425;DHT22;21537;48.226;16.400;2022-07-05T09:21:14;22.00;99.90
35425;DHT22;21537;48.226;16.400;2022-07-05T09:23:40;21.80;99.90
35425;DHT22;21537;48.226;16.400;2022-07-05T09:26:05;21.60;99.90
35425;DHT22;21537;48.226;16.400;2022-07-05T09:28:31;21.50;99.90
35425;DHT22;21537;48.226;16.400;2022-07-05T09:30:57;21.50;99.90
35425;DHT22;21537;48.226;16.400;2022-07-05T09:33:23;21.30;99.90
35425;DHT22;21537;48.226;16.400;2022-07-05T09:35:54;21.20;99.90
35425;DHT22;21537;48.226;16.400;2022-07-05T09:38:23;21.10;99.90
35425;DHT22;21537;48.226;16.400;2022-07-05T09:40:54;21.10;99.90
35425;DHT22;21537;48.226;16.400;2022-07-05T09:43:28;21.10;99.90
35425;DHT22;21537;48.226;16.400;2022-07-05T09:46:04;21.00;99.90
35425;DHT22;21537;48.226;16.400;2022-07-05T09:48:31;20.90;99.90
35425;DHT22;21537;48.226;16.400;2022-07-05T09:56:14;20.70;99.90
35425;DHT22;21537;48.226;16.400;2022-07-05T09:58:40;20.80;99.90
35425;DHT22;21537;48.226;16.400;2022-07-05T10:01:31;20.80;99.90
35425;DHT22;21537;48.226;16.400;2022-07-05T10:04:02;20.90;99.90
35425;DHT22;21537;48.226;16.400;2022-07-05T10:06:31;20.80;99.90
35425;DHT22;21537;48.226;16.400;2022-07-05T10:08:57;20.80;99.90
35425;DHT22;21537;48.226;16.400;2022-07-05T10:11:24;20.70;99.90
35425;DHT22;21537;48.226;16.400;2022-07-05T10:13:51;20.70;99.90
35425;DHT22;21537;48.226;16.400;2022-07-05T10:16:19;20.60;99.90
35425;DHT22;21537;48.226;16.400;2022-07-05T10:18:47;20.70;99.90
35425;DHT22;21537;48.226;16.400;2022-07-05T10:21:15;20.60;99.90
35425;DHT22;21537;48.226;16.400;2022-07-05T10:23:52;20.70;99.90
35425;DHT22;21537;48.226;16.400;2022-07-05T10:26:23;20.90;99.90
35425;DHT22;21537;48.226;16.400;2022-07-05T10:28:52;20.90;99.90
35425;DHT22;21537;48.226;16.400;2022-07-05T10:31:18;21.00;99.90
35425;DHT22;21537;48.226;16.400;2022-07-05T10:33:45;21.10;99.90
35425;DHT22;21537;48.226;16.400;2022-07-05T10:36:12;21.10;99.90
35425;DHT22;21537;48.226;16.400;2022-07-05T10:38:40;21.00;99.90
35425;DHT22;21537;48.226;16.400;2022-07-05T10:41:14;20.90;99.90
35425;DHT22;21537;48.226;16.400;2022-07-05T10:43:43;20.80;99.90
35425;DHT22;21537;48.226;16.400;2022-07-05T10:46:09;20.70;99.90
35425;DHT22;21537;48.226;16.400;2022-07-05T10:48:35;20.70;99.90
35425;DHT22;21537;48.226;16.400;2022-07-05T10:51:14;20.70;99.90
35425;DHT22;21537;48.226;16.400;2022-07-05T10:58:46;20.50;99.90
35425;DHT22;21537;48.226;16.400;2022-07-05T11:03:41;20.40;99.90
35425;DHT22;21537;48.226;16.400;2022-07-05T11:06:08;20.50;99.90
35425;DHT22;21537;48.226;16.400;2022-07-05T11:13:56;20.50;99.90
35425;DHT22;21537;48.226;16.400;2022-07-05T11:16:32;20.40;99.90
35425;DHT22;21537;48.226;16.400;2022-07-05T11:19:13;20.40;99.90
35425;DHT22;21537;48.226;16.400;2022-07-05T11:22:01;20.40;99.90
35425;DHT22;21537;48.226;16.400;2022-07-05T11:24:30;20.40;99.90
35425;DHT22;21537;48.226;16.400;2022-07-05T11:27:01;20.40;99.90
35425;DHT22;21537;48.226;16.400;2022-07-05T11:29:43;20.50;99.90
35425;DHT22;21537;48.226;16.400;2022-07-05T11:32:11;20.50;99.90
35425;DHT22;21537;48.226;16.400;2022-07-05T11:34:39;20.50;99.90
35425;DHT22;21537;48.226;16.400;2022-07-05T11:39:41;20.60;99.90
35425;DHT22;21537;48.226;16.400;2022-07-05T11:42:09;20.60;99.90
35425;DHT22;21537;48.226;16.400;2022-07-05T11:44:37;20.60;99.90
35425;DHT22;21537;48.226;16.400;2022-07-05T11:47:07;20.60;99.90
35425;DHT22;21537;48.226;16.400;2022-07-05T11:49:34;20.60;99.90
35425;DHT22;21537;48.226;16.400;2022-07-05T11:52:01;20.60;99.90
35425;DHT22;21537;48.226;16.400;2022-07-05T11:54:33;20.70;99.90
35425;DHT22;21537;48.226;16.400;2022-07-05T11:57:00;20.80;99.90
35425;DHT22;21537;48.226;16.400;2022-07-05T11:59:26;20.90;99.90
35425;DHT22;21537;48.226;16.400;2022-07-05T12:01:58;21.00;99.90
35425;DHT22;21537;48.226;16.400;2022-07-05T12:04:27;21.10;99.90
35425;DHT22;21537;48.226;16.400;2022-07-05T12:06:53;21.30;99.90
35425;DHT22;21537;48.226;16.400;2022-07-05T12:09:24;21.60;99.90
35425;DHT22;21537;48.226;16.400;2022-07-05T12:11:54;21.80;99.90
35425;DHT22;21537;48.226;16.400;2022-07-05T12:14:49;22.00;99.90
35425;DHT22;21537;48.226;16.400;2022-07-05T12:17:17;22.20;99.90
35425;DHT22;21537;48.226;16.400;2022-07-05T12:19:47;22.50;99.90
35425;DHT22;21537;48.226;16.400;2022-07-05T12:22:13;22.80;99.90
35425;DHT22;21537;48.226;16.400;2022-07-05T12:24:40;22.90;99.90
35425;DHT22;21537;48.226;16.400;2022-07-05T12:27:06;23.00;99.90
35425;DHT22;21537;48.226;16.400;2022-07-05T12:29:35;23.10;99.90
35425;DHT22;21537;48.226;16.400;2022-07-05T12:32:04;22.90;99.90
35425;DHT22;21537;48.226;16.400;2022-07-05T12:34:34;22.80;99.90
35425;DHT22;21537;48.226;16.400;2022-07-05T12:37:03;22.90;99.90
35425;DHT22;21537;48.226;16.400;2022-07-05T12:39:29;22.90;99.90
35425;DHT22;21537;48.226;16.400;2022-07-05T12:41:57;22.80;99.90
35425;DHT22;21537;48.226;16.400;2022-07-05T12:44:24;23.10;99.90
35425;DHT22;21537;48.226;16.400;2022-07-05T12:46:50;23.40;99.90
35425;DHT22;21537;48.226;16.400;2022-07-05T12:49:17;23.60;99.90
35425;DHT22;21537;48.226;16.400;2022-07-05T12:51:44;23.70;99.90
35425;DHT22;21537;48.226;16.400;2022-07-05T12:54:22;24.00;99.90
35425;DHT22;21537;48.226;16.400;2022-07-05T12:57:07;24.20;99.90
35425;DHT22;21537;48.226;16.400;2022-07-05T13:00:08;24.00;99.90
35425;DHT22;21537;48.226;16.400;2022-07-05T13:02:46;24.30;99.90
35425;DHT22;21537;48.226;16.400;2022-07-05T13:05:25;24.30;99.90
35425;DHT22;21537;48.226;16.400;2022-07-05T13:07:52;24.50;99.90
35425;DHT22;21537;48.226;16.400;2022-07-05T13:10:23;24.50;99.90
35425;DHT22;21537;48.226;16.400;2022-07-05T13:12:50;24.70;99.90
35425;DHT22;21537;48.226;16.400;2022-07-05T13:15:17;24.90;99.90
35425;DHT22;21537;48.226;16.400;2022-07-05T13:17:43;24.70;99.90
35425;DHT22;21537;48.226;16.400;2022-07-05T13:20:10;24.10;99.90
35425;DHT22;21537;48.226;16.400;2022-07-05T13:22:36;23.40;99.90
35425;DHT22;21537;48.226;16.400;2022-07-05T13:25:02;23.70;99.90
35425;DHT22;21537;48.226;16.400;2022-07-05T13:27:31;23.90;99.90
35425;DHT22;21537;48.226;16.400;2022-07-05T13:29:57;23.80;99.90
35425;DHT22;21537;48.226;16.400;2022-07-05T13:32:23;23.80;99.90
35425;DHT22;21537;48.226;16.400;2022-07-05T13:34:51;23.80;99.90
35425;DHT22;21537;48.226;16.400;2022-07-05T13:37:18;23.70;99.90
35425;DHT22;21537;48.226;16.400;2022-07-05T13:39:44;23.40;99.90
35425;DHT22;21537;48.226;16.400;2022-07-05T13:42:10;23.30;99.90
35425;DHT22;21537;48.226;16.400;2022-07-05T13:44:41;23.30;99.90
35425;DHT22;21537;48.226;16.400;2022-07-05T13:47:08;23.30;99.90
35425;DHT22;21537;48.226;16.400;2022-07-05T13:49:36;23.20;99.90
35425;DHT22;21537;48.226;16.400;2022-07-05T13:52:05;23.10;99.90
35425;DHT22;21537;48.226;16.400;2022-07-05T13:54:33;23.10;99.90
35425;DHT22;21537;48.226;16.400;2022-07-05T13:56:59;23.10;99.90
35425;DHT22;21537;48.226;16.400;2022-07-05T13:59:25;23.10;99.90
35425;DHT22;21537;48.226;16.400;2022-07-05T14:01:54;23.10;99.90
35425;DHT22;21537;48.226;16.400;2022-07-05T14:04:19;23.10;99.90
35425;DHT22;21537;48.226;16.400;2022-07-05T14:06:46;23.00;99.90
35425;DHT22;21537;48.226;16.400;2022-07-05T14:09:12;23.00;99.90
35425;DHT22;21537;48.226;16.400;2022-07-05T14:11:41;22.90;99.90
35425;DHT22;21537;48.226;16.400;2022-07-05T14:14:07;23.00;99.90
35425;DHT22;21537;48.226;16.400;2022-07-05T14:16:33;23.00;99.90
35425;DHT22;21537;48.226;16.400;2022-07-05T14:19:01;23.00;99.90
35425;DHT22;21537;48.226;16.400;2022-07-05T14:21:28;23.10;99.90
35425;DHT22;21537;48.226;16.400;2022-07-05T14:23:54;23.00;99.90
35425;DHT22;21537;48.226;16.400;2022-07-05T14:26:19;23.00;99.90
35425;DHT22;21537;48.226;16.400;2022-07-05T14:28:45;23.00;99.90
35425;DHT22;21537;48.226;16.400;2022-07-05T14:31:11;23.00;99.90
35425;DHT22;21537;48.226;16.400;2022-07-05T14:33:37;22.90;99.90
35425;DHT22;21537;48.226;16.400;2022-07-05T14:36:05;22.90;99.90
35425;DHT22;21537;48.226;16.400;2022-07-05T14:38:31;22.90;99.90
35425;DHT22;21537;48.226;16.400;2022-07-05T14:40:57;22.90;99.90
35425;DHT22;21537;48.226;16.400;2022-07-05T14:43:23;23.00;99.90
35425;DHT22;21537;48.226;16.400;2022-07-05T14:45:49;23.00;99.90
35425;DHT22;21537;48.226;16.400;2022-07-05T14:48:16;23.00;99.90
35425;DHT22;21537;48.226;16.400;2022-07-05T14:50:42;23.10;99.90
35425;DHT22;21537;48.226;16.400;2022-07-05T14:53:12;23.10;99.90
35425;DHT22;21537;48.226;16.400;2022-07-05T14:55:40;23.20;99.90
35425;DHT22;21537;48.226;16.400;2022-07-05T14:58:09;23.30;99.90
35425;DHT22;21537;48.226;16.400;2022-07-05T15:00:35;23.10;99.90
35425;DHT22;21537;48.226;16.400;2022-07-05T15:03:01;23.10;99.90
35425;DHT22;21537;48.226;16.400;2022-07-05T15:05:27;23.30;99.90
35425;DHT22;21537;48.226;16.400;2022-07-05T15:07:53;23.50;99.90
35425;DHT22;21537;48.226;16.400;2022-07-05T15:10:19;23.70;99.90
35425;DHT22;21537;48.226;16.400;2022-07-05T15:12:45;23.90;99.90
35425;DHT22;21537;48.226;16.400;2022-07-05T15:15:11;24.00;99.90
35425;DHT22;21537;48.226;16.400;2022-07-05T15:17:36;23.90;99.90
35425;DHT22;21537;48.226;16.400;2022-07-05T15:20:03;23.80;99.90
35425;DHT22;21537;48.226;16.400;2022-07-05T15:22:29;23.80;99.90
35425;DHT22;21537;48.226;16.400;2022-07-05T15:24:55;23.90;99.90
35425;DHT22;21537;48.226;16.400;2022-07-05T15:27:20;24.00;99.90
35425;DHT22;21537;48.226;16.400;2022-07-05T15:29:47;24.30;99.90
35425;DHT22;21537;48.226;16.400;2022-07-05T15:32:13;25.20;99.90
35425;DHT22;21537;48.226;16.400;2022-07-05T15:34:39;26.00;99.90
35425;DHT22;21537;48.226;16.400;2022-07-05T15:37:05;26.30;99.90
35425;DHT22;21537;48.226;16.400;2022-07-05T15:39:31;26.20;99.90